Time,TemperatureF,DewpointF,PressureIn,WindDirection,WindDirectionDegrees,WindSpeedMPH,WindSpeedGustMPH,Humidity,HourlyPrecipIn,Conditions,Clouds,dailyrainin,SoftwareType,DateUTC
2013-08-30 00:02:00,65.5,61.8,29.90,SSE,157,0.0,0.0,88,0.00,,,0.00,WUHU21623XXSP,2013-08-30 07:02:00,
2013-08-30 00:07:00,65.5,61.8,29.90,SE,135,0.0,0.0,88,0.00,,,0.00,WUHU21623XXSP,2013-08-30 07:07:00,
2013-08-30 00:12:00,65.5,61.8,29.90,ESE,112,0.0,0.0,88,0.00,,,0.00,WUHU21623XXSP,2013-08-30 07:12:00,
2013-08-30 00:18:00,65.7,62.0,29.91,ESE,112,0.0,0.0,88,0.00,,,0.00,WUHU21623XXSP,2013-08-30 07:18:00,
2013-08-30 00:23:00,65.7,62.3,29.91,South,180,0.0,0.0,89,0.00,,,0.00,WUHU21623XXSP,2013-08-30 07:23:00,
2013-08-30 00:28:00,65.8,62.5,29.91,SE,135,0.0,0.0,89,0.00,,,0.00,WUHU21623XXSP,2013-08-30 07:28:00,
2013-08-30 00:34:00,65.7,62.3,29.91,SE,135,0.0,0.0,89,0.00,,,0.00,WUHU21623XXSP,2013-08-30 07:34:00,
2013-08-30 00:39:00,65.8,62.2,29.91,South,180,0.0,0.0,88,0.00,,,0.00,WUHU21623XXSP,2013-08-30 07:39:00,
2013-08-30 00:44:00,65.7,62.0,29.91,SW,225,0.0,0.0,88,0.00,,,0.00,WUHU21623XXSP,2013-08-30 07:44:00,
2013-08-30 00:49:00,65.8,62.2,29.91,WSW,247,0.0,0.0,88,0.00,,,0.00,WUHU21623XXSP,2013-08-30 07:49:00,
2013-08-30 00:55:00,65.8,62.2,29.92,SW,225,0.0,0.0,88,0.00,,,0.00,WUHU21623XXSP,2013-08-30 07:55:00,
2013-08-30 01:00:00,65.8,61.8,29.91,WSW,247,0.0,0.0,87,0.00,,,0.00,WUHU21623XXSP,2013-08-30 08:00:00,
2013-08-30 01:05:00,65.8,61.8,29.91,WSW,247,0.0,0.0,87,0.00,,,0.00,WUHU21623XXSP,2013-08-30 08:05:00,
2013-08-30 01:10:00,65.8,61.8,29.92,SW,225,0.0,0.0,87,0.00,,,0.00,WUHU21623XXSP,2013-08-30 08:10:00,
2013-08-30 01:16:00,65.7,61.7,29.92,SW,225,0.0,0.0,87,0.00,,,0.00,WUHU21623XXSP,2013-08-30 08:16:00,
2013-08-30 01:21:00,65.7,61.7,29.92,SSE,157,0.0,0.0,87,0.00,,,0.00,WUHU21623XXSP,2013-08-30 08:21:00,
2013-08-30 01:26:00,65.7,61.3,29.92,WSW,247,0.0,0.0,86,0.00,,,0.00,WUHU21623XXSP,2013-08-30 08:26:00,
2013-08-30 01:32:00,65.5,61.2,29.92,NNW,337,0.0,0.0,86,0.00,,,0.00,WUHU21623XXSP,2013-08-30 08:32:00,
2013-08-30 01:37:00,65.5,61.2,29.92,SSE,157,0.0,0.0,86,0.00,,,0.00,WUHU21623XXSP,2013-08-30 08:37:00,
2013-08-30 01:42:00,65.5,60.8,29.92,WSW,247,0.0,0.0,85,0.00,,,0.00,WUHU21623XXSP,2013-08-30 08:42:00,
2013-08-30 01:48:00,65.3,60.7,29.92,SSW,202,0.0,0.0,85,0.00,,,0.00,WUHU21623XXSP,2013-08-30 08:48:00,
2013-08-30 01:53:00,65.3,60.7,29.92,SSW,202,0.0,0.0,85,0.00,,,0.00,WUHU21623XXSP,2013-08-30 08:53:00,
2013-08-30 01:58:00,65.3,60.7,29.92,SSW,202,0.0,0.0,85,0.00,,,0.00,WUHU21623XXSP,2013-08-30 08:58:00,
2013-08-30 02:03:00,65.3,60.7,29.93,SSW,202,0.0,0.0,85,0.00,,,0.00,WUHU21623XXSP,2013-08-30 09:03:00,
2013-08-30 02:09:00,65.1,60.5,29.93,SW,225,0.0,0.0,85,0.00,,,0.00,WUHU21623XXSP,2013-08-30 09:09:00,
2013-08-30 02:14:00,65.1,60.5,29.93,ESE,112,0.0,0.0,85,0.00,,,0.00,WUHU21623XXSP,2013-08-30 09:14:00,
2013-08-30 02:19:00,65.1,60.5,29.93,ESE,112,0.0,0.0,85,0.00,,,0.00,WUHU21623XXSP,2013-08-30 09:19:00,
2013-08-30 02:24:00,65.1,60.5,29.93,ESE,112,0.0,0.0,85,0.00,,,0.00,WUHU21623XXSP,2013-08-30 09:24:00,
2013-08-30 02:30:00,64.9,60.3,29.94,SSE,157,0.0,0.0,85,0.00,,,0.00,WUHU21623XXSP,2013-08-30 09:30:00,
2013-08-30 02:35:00,64.9,60.3,29.94,SE,135,0.0,0.0,85,0.00,,,0.00,WUHU21623XXSP,2013-08-30 09:35:00,
2013-08-30 02:40:00,64.9,60.3,29.93,South,180,0.0,0.0,85,0.00,,,0.00,WUHU21623XXSP,2013-08-30 09:40:00,
2013-08-30 02:46:00,64.8,60.2,29.93,South,180,0.0,0.0,85,0.00,,,0.00,WUHU21623XXSP,2013-08-30 09:46:00,
2013-08-30 02:51:00,64.8,59.8,29.93,South,180,0.0,0.0,84,0.00,,,0.00,WUHU21623XXSP,2013-08-30 09:51:00,
2013-08-30 02:56:00,64.8,59.8,29.93,South,180,0.0,0.0,84,0.00,,,0.00,WUHU21623XXSP,2013-08-30 09:56:00,
2013-08-30 03:01:00,64.8,59.8,29.93,SSE,157,0.0,0.0,84,0.00,,,0.00,WUHU21623XXSP,2013-08-30 10:01:00,
2013-08-30 03:07:00,64.6,59.6,29.94,SSE,157,0.0,0.0,84,0.00,,,0.00,WUHU21623XXSP,2013-08-30 10:07:00,
2013-08-30 03:12:00,64.6,59.6,29.94,SSE,157,0.0,0.0,84,0.00,,,0.00,WUHU21623XXSP,2013-08-30 10:12:00,
2013-08-30 03:17:00,64.6,59.6,29.94,South,180,0.0,0.0,84,0.00,,,0.00,WUHU21623XXSP,2013-08-30 10:17:00,
2013-08-30 03:22:00,64.6,59.6,29.94,South,180,0.0,0.0,84,0.00,,,0.00,WUHU21623XXSP,2013-08-30 10:22:00,
2013-08-30 03:28:00,64.6,59.6,29.94,South,180,0.0,0.0,84,0.00,,,0.00,WUHU21623XXSP,2013-08-30 10:28:00,
2013-08-30 03:33:00,64.6,59.6,29.94,SE,135,0.0,0.0,84,0.00,,,0.00,WUHU21623XXSP,2013-08-30 10:33:00,
2013-08-30 03:38:00,64.2,59.3,29.94,SW,225,0.0,0.0,84,0.00,,,0.00,WUHU21623XXSP,2013-08-30 10:38:00,
2013-08-30 03:44:00,64.2,59.3,29.95,SSW,202,0.0,0.0,84,0.00,,,0.00,WUHU21623XXSP,2013-08-30 10:44:00,
2013-08-30 03:49:00,64.2,59.3,29.95,East,90,0.0,0.0,84,0.00,,,0.00,WUHU21623XXSP,2013-08-30 10:49:00,
2013-08-30 03:54:00,64.2,59.3,29.94,East,90,0.0,0.0,84,0.00,,,0.00,WUHU21623XXSP,2013-08-30 10:54:00,
2013-08-30 03:59:00,64.2,59.3,29.94,East,90,0.0,0.0,84,0.00,,,0.00,WUHU21623XXSP,2013-08-30 10:59:00,
2013-08-30 04:05:00,64.2,59.3,29.94,SSE,157,0.0,0.0,84,0.00,,,0.00,WUHU21623XXSP,2013-08-30 11:05:00,
2013-08-30 04:10:00,64.2,59.3,29.95,SSE,157,0.0,0.0,84,0.00,,,0.00,WUHU21623XXSP,2013-08-30 11:10:00,
2013-08-30 04:15:00,64.0,59.1,29.95,SSE,157,0.0,0.0,84,0.00,,,0.00,WUHU21623XXSP,2013-08-30 11:15:00,
2013-08-30 04:21:00,64.0,59.1,29.95,SSE,157,0.0,0.0,84,0.00,,,0.00,WUHU21623XXSP,2013-08-30 11:21:00,
2013-08-30 04:26:00,64.0,59.1,29.94,SE,135,0.0,0.0,84,0.00,,,0.00,WUHU21623XXSP,2013-08-30 11:26:00,
2013-08-30 04:31:00,64.0,59.1,29.94,SE,135,0.0,0.0,84,0.00,,,0.00,WUHU21623XXSP,2013-08-30 11:31:00,
2013-08-30 04:36:00,64.0,59.1,29.95,SE,135,0.0,0.0,84,0.00,,,0.00,WUHU21623XXSP,2013-08-30 11:36:00,
2013-08-30 04:42:00,63.7,58.7,29.95,SE,135,0.0,0.0,84,0.00,,,0.00,WUHU21623XXSP,2013-08-30 11:42:00,
2013-08-30 04:47:00,63.7,58.7,29.95,SSE,157,0.0,0.0,84,0.00,,,0.00,WUHU21623XXSP,2013-08-30 11:47:00,
2013-08-30 04:52:00,63.7,58.4,29.95,SSE,157,0.0,0.0,83,0.00,,,0.00,WUHU21623XXSP,2013-08-30 11:52:00,
2013-08-30 04:58:00,63.7,58.4,29.95,SE,135,0.0,0.0,83,0.00,,,0.00,WUHU21623XXSP,2013-08-30 11:58:00,
2013-08-30 05:03:00,63.7,58.4,29.94,SSE,157,0.0,0.0,83,0.00,,,0.00,WUHU21623XXSP,2013-08-30 12:03:00,
2013-08-30 05:08:00,63.5,58.2,29.94,South,180,0.0,0.0,83,0.00,,,0.00,WUHU21623XXSP,2013-08-30 12:08:00,
2013-08-30 05:13:00,63.3,58.0,29.94,South,180,0.0,0.0,83,0.00,,,0.00,WUHU21623XXSP,2013-08-30 12:13:00,
2013-08-30 05:19:00,63.3,58.0,29.95,SSW,202,0.0,0.0,83,0.00,,,0.00,WUHU21623XXSP,2013-08-30 12:19:00,
2013-08-30 05:24:00,63.1,57.9,29.96,SE,135,0.0,0.0,83,0.00,,,0.00,WUHU21623XXSP,2013-08-30 12:24:00,
2013-08-30 05:29:00,63.1,57.9,29.96,SSW,202,0.0,0.0,83,0.00,,,0.00,WUHU21623XXSP,2013-08-30 12:29:00,
2013-08-30 05:35:00,63.1,57.9,29.96,SE,135,0.0,0.0,83,0.00,,,0.00,WUHU21623XXSP,2013-08-30 12:35:00,
2013-08-30 05:40:00,63.0,57.7,29.96,SSE,157,0.0,0.0,83,0.00,,,0.00,WUHU21623XXSP,2013-08-30 12:40:00,
2013-08-30 05:45:00,63.0,57.7,29.96,SE,135,0.0,0.0,83,0.00,,,0.00,WUHU21623XXSP,2013-08-30 12:45:00,
2013-08-30 05:50:00,62.8,57.5,29.96,SSE,157,0.0,0.0,83,0.00,,,0.00,WUHU21623XXSP,2013-08-30 12:50:00,
2013-08-30 05:56:00,62.8,57.5,29.96,SSE,157,0.0,0.0,83,0.00,,,0.00,WUHU21623XXSP,2013-08-30 12:56:00,
2013-08-30 06:01:00,62.6,57.3,29.96,South,180,0.0,0.0,83,0.00,,,0.00,WUHU21623XXSP,2013-08-30 13:01:00,
2013-08-30 06:06:00,62.4,57.1,29.96,South,180,0.0,0.0,83,0.00,,,0.00,WUHU21623XXSP,2013-08-30 13:06:00,
2013-08-30 06:12:00,62.4,57.5,29.96,South,180,0.0,0.0,84,0.00,,,0.00,WUHU21623XXSP,2013-08-30 13:12:00,
2013-08-30 06:17:00,62.4,57.5,29.96,South,180,0.0,0.0,84,0.00,,,0.00,WUHU21623XXSP,2013-08-30 13:17:00,
2013-08-30 06:22:00,62.4,57.5,29.96,West,270,0.0,0.0,84,0.00,,,0.00,WUHU21623XXSP,2013-08-30 13:22:00,
2013-08-30 06:27:00,62.2,57.0,29.96,SSW,202,0.0,0.0,83,0.00,,,0.00,WUHU21623XXSP,2013-08-30 13:27:00,
2013-08-30 06:33:00,62.2,57.0,29.97,SSE,157,0.0,0.0,83,0.00,,,0.00,WUHU21623XXSP,2013-08-30 13:33:00,
2013-08-30 06:38:00,62.1,56.8,29.97,SSE,157,0.0,0.0,83,0.00,,,0.00,WUHU21623XXSP,2013-08-30 13:38:00,
2013-08-30 06:43:00,62.1,57.1,29.97,SE,135,0.0,0.0,84,0.00,,,0.00,WUHU21623XXSP,2013-08-30 13:43:00,
2013-08-30 06:49:00,61.9,57.0,29.97,SSE,157,0.0,0.0,84,0.00,,,0.00,WUHU21623XXSP,2013-08-30 13:49:00,
2013-08-30 06:54:00,61.9,57.0,29.97,SE,135,0.0,0.0,84,0.00,,,0.00,WUHU21623XXSP,2013-08-30 13:54:00,
2013-08-30 06:59:00,61.7,56.8,29.98,SE,135,0.0,0.0,84,0.00,,,0.00,WUHU21623XXSP,2013-08-30 13:59:00,
2013-08-30 07:04:00,61.7,56.8,29.98,SE,135,0.0,0.0,84,0.00,,,0.00,WUHU21623XXSP,2013-08-30 14:04:00,
2013-08-30 07:10:00,61.7,56.8,29.97,SE,135,0.0,0.0,84,0.00,,,0.00,WUHU21623XXSP,2013-08-30 14:10:00,
2013-08-30 07:15:00,61.7,56.8,29.98,SE,135,0.0,0.0,84,0.00,,,0.00,WUHU21623XXSP,2013-08-30 14:15:00,
2013-08-30 07:20:00,61.5,57.0,29.98,SSE,157,0.0,0.0,85,0.00,,,0.00,WUHU21623XXSP,2013-08-30 14:20:00,
2013-08-30 07:25:00,61.7,57.1,29.98,SSE,157,0.0,0.0,85,0.00,,,0.00,WUHU21623XXSP,2013-08-30 14:25:00,
2013-08-30 07:31:00,61.7,57.1,29.98,SSE,157,0.0,0.0,85,0.00,,,0.00,WUHU21623XXSP,2013-08-30 14:31:00,
2013-08-30 07:36:00,61.9,57.3,29.98,SE,135,0.0,0.0,85,0.00,,,0.00,WUHU21623XXSP,2013-08-30 14:36:00,
2013-08-30 07:41:00,61.9,57.3,29.99,SE,135,0.0,0.0,85,0.00,,,0.00,WUHU21623XXSP,2013-08-30 14:41:00,
2013-08-30 07:46:00,62.2,57.7,29.99,SE,135,0.0,0.0,85,0.00,,,0.00,WUHU21623XXSP,2013-08-30 14:46:00,
2013-08-30 07:52:00,63.1,58.5,29.99,SSE,157,0.0,0.0,85,0.00,,,0.00,WUHU21623XXSP,2013-08-30 14:52:00,
2013-08-30 07:57:00,63.5,58.9,29.99,SE,135,0.0,0.0,85,0.00,,,0.00,WUHU21623XXSP,2013-08-30 14:57:00,
2013-08-30 08:02:00,64.2,59.3,29.99,ESE,112,0.0,0.0,84,0.00,,,0.00,WUHU21623XXSP,2013-08-30 15:02:00,
2013-08-30 08:08:00,64.8,59.8,29.99,ESE,112,0.0,0.0,84,0.00,,,0.00,WUHU21623XXSP,2013-08-30 15:08:00,
2013-08-30 08:13:00,65.5,60.2,29.99,SE,135,0.0,0.0,83,0.00,,,0.00,WUHU21623XXSP,2013-08-30 15:13:00,
2013-08-30 08:18:00,66.0,60.4,29.99,SE,135,0.0,0.0,82,0.00,,,0.00,WUHU21623XXSP,2013-08-30 15:18:00,
2013-08-30 08:23:00,66.6,60.6,29.99,SE,135,0.0,0.0,81,0.00,,,0.00,WUHU21623XXSP,2013-08-30 15:23:00,
2013-08-30 08:29:00,66.7,60.4,30.00,ESE,112,0.0,0.0,80,0.00,,,0.00,WUHU21623XXSP,2013-08-30 15:29:00,
2013-08-30 08:34:00,66.9,60.6,30.00,SE,135,0.0,0.0,80,0.00,,,0.00,WUHU21623XXSP,2013-08-30 15:34:00,
2013-08-30 08:39:00,67.5,61.5,30.00,SE,135,0.0,0.0,81,0.00,,,0.00,WUHU21623XXSP,2013-08-30 15:39:00,
2013-08-30 08:45:00,67.8,61.1,29.99,ESE,112,0.0,0.0,79,0.00,,,0.00,WUHU21623XXSP,2013-08-30 15:45:00,
2013-08-30 08:50:00,68.5,61.4,29.99,SE,135,0.0,0.0,78,0.00,,,0.00,WUHU21623XXSP,2013-08-30 15:50:00,
2013-08-30 08:55:00,69.1,61.5,29.99,South,180,0.0,0.0,77,0.00,,,0.00,WUHU21623XXSP,2013-08-30 15:55:00,
2013-08-30 09:00:00,69.8,61.4,29.99,WSW,247,0.0,0.0,75,0.00,,,0.00,WUHU21623XXSP,2013-08-30 16:00:00,
2013-08-30 09:06:00,70.0,61.2,30.00,SE,135,0.0,0.0,74,0.00,,,0.00,WUHU21623XXSP,2013-08-30 16:06:00,
2013-08-30 09:11:00,70.7,61.6,29.99,WSW,247,0.0,0.0,73,0.00,,,0.00,WUHU21623XXSP,2013-08-30 16:11:00,
2013-08-30 09:16:00,70.9,61.4,29.99,SSE,157,0.0,0.0,72,0.00,,,0.00,WUHU21623XXSP,2013-08-30 16:16:00,
2013-08-30 09:22:00,71.2,61.4,30.00,ESE,112,0.0,0.0,71,0.00,,,0.00,WUHU21623XXSP,2013-08-30 16:22:00,
2013-08-30 09:27:00,71.4,61.5,30.01,SSE,157,0.0,0.0,71,0.00,,,0.00,WUHU21623XXSP,2013-08-30 16:27:00,
2013-08-30 09:32:00,72.0,61.7,30.01,ESE,112,0.0,0.0,70,0.00,,,0.00,WUHU21623XXSP,2013-08-30 16:32:00,
2013-08-30 09:37:00,72.3,62.1,30.01,SE,135,0.0,0.0,70,0.00,,,0.00,WUHU21623XXSP,2013-08-30 16:37:00,
2013-08-30 09:43:00,72.7,61.5,30.01,SE,135,0.0,0.0,68,0.00,,,0.00,WUHU21623XXSP,2013-08-30 16:43:00,
2013-08-30 09:48:00,72.9,61.3,30.01,WSW,247,0.0,0.0,67,0.00,,,0.00,WUHU21623XXSP,2013-08-30 16:48:00,
2013-08-30 09:53:00,72.5,60.5,30.01,West,270,0.0,0.0,66,0.00,,,0.00,WUHU21623XXSP,2013-08-30 16:53:00,
2013-08-30 09:59:00,72.1,60.1,30.01,SE,135,0.0,0.0,66,0.00,,,0.00,WUHU21623XXSP,2013-08-30 16:59:00,
2013-08-30 10:04:00,71.8,60.2,30.01,SW,225,0.0,0.0,67,0.00,,,0.00,WUHU21623XXSP,2013-08-30 17:04:00,
2013-08-30 10:09:00,70.9,59.3,30.02,South,180,0.0,0.0,67,0.00,,,0.00,WUHU21623XXSP,2013-08-30 17:09:00,
2013-08-30 10:14:00,70.7,59.2,30.02,SSW,202,0.0,0.0,67,0.00,,,0.00,WUHU21623XXSP,2013-08-30 17:14:00,
2013-08-30 10:20:00,70.3,59.6,30.02,SE,135,0.0,0.0,69,0.00,,,0.00,WUHU21623XXSP,2013-08-30 17:20:00,
2013-08-30 10:25:00,70.3,59.6,30.02,SE,135,0.0,2.7,69,0.00,,,0.00,WUHU21623XXSP,2013-08-30 17:25:00,
2013-08-30 10:30:00,70.3,59.6,30.02,SE,135,0.0,2.7,69,0.00,,,0.00,WUHU21623XXSP,2013-08-30 17:30:00,
2013-08-30 10:35:00,70.5,59.8,30.03,SE,135,0.0,0.0,69,0.00,,,0.00,WUHU21623XXSP,2013-08-30 17:35:00,
2013-08-30 10:41:00,71.2,60.5,30.03,WSW,247,0.0,0.0,69,0.00,,,0.00,WUHU21623XXSP,2013-08-30 17:41:00,
2013-08-30 10:46:00,72.1,61.4,30.03,SW,225,0.0,0.0,69,0.00,,,0.00,WUHU21623XXSP,2013-08-30 17:46:00,
2013-08-30 10:51:00,73.0,61.4,30.03,SSE,157,0.0,0.0,67,0.00,,,0.00,WUHU21623XXSP,2013-08-30 17:51:00,
2013-08-30 10:57:00,73.0,60.5,30.03,SW,225,0.0,0.0,65,0.00,,,0.00,WUHU21623XXSP,2013-08-30 17:57:00,
2013-08-30 11:02:00,73.0,60.5,30.03,East,90,0.0,0.0,65,0.00,,,0.00,WUHU21623XXSP,2013-08-30 18:02:00,
2013-08-30 11:07:00,73.2,60.7,30.04,SW,225,0.0,0.0,65,0.00,,,0.00,WUHU21623XXSP,2013-08-30 18:07:00,
2013-08-30 11:13:00,73.2,60.3,30.04,SW,225,0.0,0.0,64,0.00,,,0.00,WUHU21623XXSP,2013-08-30 18:13:00,
2013-08-30 11:18:00,73.8,61.2,30.03,ESE,112,0.0,0.0,65,0.00,,,0.00,WUHU21623XXSP,2013-08-30 18:18:00,
2013-08-30 11:23:00,74.1,60.7,30.03,East,90,0.0,0.0,63,0.00,,,0.00,WUHU21623XXSP,2013-08-30 18:23:00,
2013-08-30 11:28:00,74.3,60.4,30.03,SE,135,0.0,0.0,62,0.00,,,0.00,WUHU21623XXSP,2013-08-30 18:28:00,
2013-08-30 11:34:00,74.5,60.2,30.04,SW,225,0.0,0.0,61,0.00,,,0.00,WUHU21623XXSP,2013-08-30 18:34:00,
2013-08-30 11:39:00,75.0,60.3,30.03,SSE,157,0.0,0.0,60,0.00,,,0.00,WUHU21623XXSP,2013-08-30 18:39:00,
2013-08-30 11:44:00,75.4,60.1,30.04,West,270,0.0,0.0,59,0.00,,,0.00,WUHU21623XXSP,2013-08-30 18:44:00,
2013-08-30 11:50:00,75.4,59.1,30.03,SW,225,0.0,0.0,57,0.00,,,0.00,WUHU21623XXSP,2013-08-30 18:50:00,
2013-08-30 11:55:00,75.6,59.8,30.04,NW,315,0.0,0.0,58,0.00,,,0.00,WUHU21623XXSP,2013-08-30 18:55:00,
2013-08-30 12:00:00,76.3,60.4,30.04,SW,225,0.0,0.0,58,0.00,,,0.00,WUHU21623XXSP,2013-08-30 19:00:00,
2013-08-30 12:05:00,76.1,59.7,30.04,WSW,247,0.0,0.0,57,0.00,,,0.00,WUHU21623XXSP,2013-08-30 19:05:00,
2013-08-30 12:11:00,76.5,60.6,30.04,WSW,247,0.0,0.0,58,0.00,,,0.00,WUHU21623XXSP,2013-08-30 19:11:00,
2013-08-30 12:16:00,76.8,60.9,30.04,SE,135,0.0,0.0,58,0.00,,,0.00,WUHU21623XXSP,2013-08-30 19:16:00,
2013-08-30 12:21:00,78.1,61.1,30.03,SSE,157,0.0,0.0,56,0.00,,,0.00,WUHU21623XXSP,2013-08-30 19:21:00,
2013-08-30 12:26:00,78.1,60.0,30.04,West,270,0.0,0.0,54,0.00,,,0.00,WUHU21623XXSP,2013-08-30 19:26:00,
2013-08-30 12:32:00,77.5,59.0,30.03,West,270,0.0,0.0,53,0.00,,,0.00,WUHU21623XXSP,2013-08-30 19:32:00,
2013-08-30 12:37:00,77.7,60.2,30.03,SE,135,0.0,0.0,55,0.00,,,0.00,WUHU21623XXSP,2013-08-30 19:37:00,
2013-08-30 12:42:00,78.3,60.7,30.03,South,180,0.0,0.0,55,0.00,,,0.00,WUHU21623XXSP,2013-08-30 19:42:00,
2013-08-30 12:47:00,78.6,60.0,30.03,SSW,202,0.0,0.0,53,0.00,,,0.00,WUHU21623XXSP,2013-08-30 19:47:00,
2013-08-30 12:53:00,78.6,59.5,30.03,SSE,157,0.0,0.0,52,0.00,,,0.00,WUHU21623XXSP,2013-08-30 19:53:00,
2013-08-30 12:58:00,78.4,59.3,30.03,ESE,112,0.0,0.0,52,0.00,,,0.00,WUHU21623XXSP,2013-08-30 19:58:00,
2013-08-30 13:03:00,77.9,59.4,30.03,ESE,112,0.0,0.0,53,0.00,,,0.00,WUHU21623XXSP,2013-08-30 20:03:00,
2013-08-30 13:09:00,78.4,59.3,30.03,ESE,112,0.0,0.0,52,0.00,,,0.00,WUHU21623XXSP,2013-08-30 20:09:00,
2013-08-30 13:14:00,78.6,59.5,30.03,ESE,112,0.0,0.0,52,0.00,,,0.00,WUHU21623XXSP,2013-08-30 20:14:00,
2013-08-30 13:19:00,79.0,59.3,30.03,WSW,247,0.0,0.0,51,0.00,,,0.00,WUHU21623XXSP,2013-08-30 20:19:00,
2013-08-30 13:25:00,79.2,59.5,30.03,SSW,202,0.0,0.0,51,0.00,,,0.00,WUHU21623XXSP,2013-08-30 20:25:00,
2013-08-30 13:30:00,79.3,59.1,30.03,SSE,157,0.0,0.0,50,0.00,,,0.00,WUHU21623XXSP,2013-08-30 20:30:00,
2013-08-30 13:35:00,79.2,58.4,30.02,ESE,112,0.0,0.0,49,0.00,,,0.00,WUHU21623XXSP,2013-08-30 20:35:00,
2013-08-30 13:40:00,78.6,58.5,30.03,South,180,0.0,0.0,50,0.00,,,0.00,WUHU21623XXSP,2013-08-30 20:40:00,
2013-08-30 13:46:00,79.0,58.8,30.03,SSE,157,0.0,0.0,50,0.00,,,0.00,WUHU21623XXSP,2013-08-30 20:46:00,
2013-08-30 13:51:00,79.0,58.8,30.03,WSW,247,0.0,0.0,50,0.00,,,0.00,WUHU21623XXSP,2013-08-30 20:51:00,
2013-08-30 13:56:00,79.0,57.6,30.03,SW,225,0.0,0.0,48,0.00,,,0.00,WUHU21623XXSP,2013-08-30 20:56:00,
2013-08-30 14:02:00,78.6,57.3,30.02,SW,225,0.0,0.0,48,0.00,,,0.00,WUHU21623XXSP,2013-08-30 21:02:00,
2013-08-30 14:07:00,78.6,56.6,30.02,SE,135,0.0,0.0,47,0.00,,,0.00,WUHU21623XXSP,2013-08-30 21:07:00,
2013-08-30 14:12:00,78.4,56.5,30.02,ESE,112,0.0,0.0,47,0.00,,,0.00,WUHU21623XXSP,2013-08-30 21:12:00,
2013-08-30 14:17:00,77.9,56.6,30.03,ESE,112,0.0,0.0,48,0.00,,,0.00,WUHU21623XXSP,2013-08-30 21:17:00,
2013-08-30 14:23:00,77.7,55.8,30.02,SSE,157,0.0,0.0,47,0.00,,,0.00,WUHU21623XXSP,2013-08-30 21:23:00,
2013-08-30 14:28:00,77.4,56.1,30.02,WSW,247,0.0,0.0,48,0.00,,,0.00,WUHU21623XXSP,2013-08-30 21:28:00,
2013-08-30 14:33:00,77.2,56.0,30.02,SE,135,0.0,0.0,48,0.00,,,0.00,WUHU21623XXSP,2013-08-30 21:33:00,
2013-08-30 14:38:00,77.0,55.8,30.02,East,90,0.0,0.0,48,0.00,,,0.00,WUHU21623XXSP,2013-08-30 21:38:00,
2013-08-30 14:44:00,76.8,55.6,30.02,East,90,0.0,0.0,48,0.00,,,0.00,WUHU21623XXSP,2013-08-30 21:44:00,
2013-08-30 14:49:00,76.8,56.2,30.02,SSW,202,0.0,0.0,49,0.00,,,0.00,WUHU21623XXSP,2013-08-30 21:49:00,
2013-08-30 14:54:00,76.6,54.9,30.02,SSE,157,0.0,0.0,47,0.00,,,0.00,WUHU21623XXSP,2013-08-30 21:54:00,
2013-08-30 15:00:00,76.6,55.5,30.02,WSW,247,0.0,0.0,48,0.00,,,0.00,WUHU21623XXSP,2013-08-30 22:00:00,
2013-08-30 15:05:00,76.6,55.5,30.01,SW,225,0.0,0.0,48,0.00,,,0.00,WUHU21623XXSP,2013-08-30 22:05:00,
2013-08-30 15:10:00,76.6,54.9,30.01,WSW,247,0.0,0.0,47,0.00,,,0.00,WUHU21623XXSP,2013-08-30 22:10:00,
2013-08-30 15:15:00,76.3,55.1,30.02,ESE,112,0.0,0.0,48,0.00,,,0.00,WUHU21623XXSP,2013-08-30 22:15:00,
2013-08-30 15:21:00,76.1,55.0,30.01,WSW,247,0.0,0.0,48,0.00,,,0.00,WUHU21623XXSP,2013-08-30 22:21:00,
2013-08-30 15:26:00,75.7,54.0,30.01,SW,225,0.0,0.0,47,0.00,,,0.00,WUHU21623XXSP,2013-08-30 22:26:00,
2013-08-30 15:31:00,75.6,53.9,30.01,WNW,292,0.0,0.0,47,0.00,,,0.00,WUHU21623XXSP,2013-08-30 22:31:00,
2013-08-30 15:37:00,75.6,54.5,30.01,WSW,247,0.0,0.0,48,0.00,,,0.00,WUHU21623XXSP,2013-08-30 22:37:00,
2013-08-30 15:42:00,75.4,54.3,30.01,WSW,247,0.0,0.0,48,0.00,,,0.00,WUHU21623XXSP,2013-08-30 22:42:00,
2013-08-30 15:47:00,75.2,53.6,30.01,West,270,0.0,0.0,47,0.00,,,0.00,WUHU21623XXSP,2013-08-30 22:47:00,
2013-08-30 15:52:00,75.0,54.0,30.02,West,270,0.0,0.0,48,0.00,,,0.00,WUHU21623XXSP,2013-08-30 22:52:00,
2013-08-30 15:58:00,75.0,54.0,30.02,West,270,0.0,0.0,48,0.00,,,0.00,WUHU21623XXSP,2013-08-30 22:58:00,
2013-08-30 16:03:00,75.0,54.0,30.01,SE,135,0.0,0.0,48,0.00,,,0.00,WUHU21623XXSP,2013-08-30 23:03:00,
2013-08-30 16:08:00,75.0,54.0,30.01,West,270,0.0,0.0,48,0.00,,,0.00,WUHU21623XXSP,2013-08-30 23:08:00,
2013-08-30 16:13:00,74.8,53.8,30.01,West,270,0.0,0.0,48,0.00,,,0.00,WUHU21623XXSP,2013-08-30 23:13:00,
2013-08-30 16:19:00,75.0,54.6,30.01,WSW,247,0.0,0.0,49,0.00,,,0.00,WUHU21623XXSP,2013-08-30 23:19:00,
2013-08-30 16:24:00,75.0,54.6,30.01,WSW,247,0.0,0.0,49,0.00,,,0.00,WUHU21623XXSP,2013-08-30 23:24:00,
2013-08-30 16:29:00,75.0,54.6,30.01,South,180,0.0,0.0,49,0.00,,,0.00,WUHU21623XXSP,2013-08-30 23:29:00,
2013-08-30 16:35:00,75.0,54.0,30.01,SW,225,0.0,0.0,48,0.00,,,0.00,WUHU21623XXSP,2013-08-30 23:35:00,
2013-08-30 16:40:00,74.8,53.8,30.01,SW,225,0.0,0.0,48,0.00,,,0.00,WUHU21623XXSP,2013-08-30 23:40:00,
2013-08-30 16:45:00,74.8,53.8,30.01,WSW,247,0.0,0.0,48,0.00,,,0.00,WUHU21623XXSP,2013-08-30 23:45:00,
2013-08-30 16:50:00,74.7,54.2,30.01,SSW,202,0.0,0.0,49,0.00,,,0.00,WUHU21623XXSP,2013-08-30 23:50:00,
2013-08-30 16:56:00,74.7,54.2,30.00,SW,225,0.0,0.0,49,0.00,,,0.00,WUHU21623XXSP,2013-08-30 23:56:00,
2013-08-30 17:01:00,74.5,54.1,30.00,SW,225,0.0,0.0,49,0.00,,,0.00,WUHU21623XXSP,2013-08-31 00:01:00,
2013-08-30 17:06:00,74.5,52.9,30.00,ESE,112,0.0,0.0,47,0.00,,,0.00,WUHU21623XXSP,2013-08-31 00:06:00,
2013-08-30 17:12:00,74.3,52.7,30.00,ESE,112,0.0,0.0,47,0.00,,,0.00,WUHU21623XXSP,2013-08-31 00:12:00,
2013-08-30 17:17:00,74.1,53.1,30.00,South,180,0.0,0.0,48,0.00,,,0.00,WUHU21623XXSP,2013-08-31 00:17:00,
2013-08-30 17:22:00,74.1,53.1,29.99,SE,135,0.0,0.0,48,0.00,,,0.00,WUHU21623XXSP,2013-08-31 00:22:00,
2013-08-30 17:27:00,74.1,53.1,29.99,SSE,157,0.0,0.0,48,0.00,,,0.00,WUHU21623XXSP,2013-08-31 00:27:00,
2013-08-30 17:33:00,74.1,53.1,30.00,South,180,0.0,0.0,48,0.00,,,0.00,WUHU21623XXSP,2013-08-31 00:33:00,
2013-08-30 17:38:00,74.1,53.1,29.99,SW,225,0.0,0.0,48,0.00,,,0.00,WUHU21623XXSP,2013-08-31 00:38:00,
2013-08-30 17:43:00,74.1,53.1,29.99,SE,135,0.0,0.0,48,0.00,,,0.00,WUHU21623XXSP,2013-08-31 00:43:00,
2013-08-30 17:48:00,73.9,52.9,29.99,SE,135,0.0,0.0,48,0.00,,,0.00,WUHU21623XXSP,2013-08-31 00:48:00,
2013-08-30 17:54:00,73.8,52.8,29.99,SE,135,0.0,0.0,48,0.00,,,0.00,WUHU21623XXSP,2013-08-31 00:54:00,
2013-08-30 17:59:00,73.9,52.9,29.99,SE,135,0.0,0.0,48,0.00,,,0.00,WUHU21623XXSP,2013-08-31 00:59:00,
2013-08-30 18:04:00,73.8,52.8,29.99,SSW,202,0.0,0.0,48,0.00,,,0.00,WUHU21623XXSP,2013-08-31 01:04:00,
2013-08-30 18:10:00,73.8,53.3,29.99,SSW,202,0.0,0.0,49,0.00,,,0.00,WUHU21623XXSP,2013-08-31 01:10:00,
2013-08-30 18:15:00,73.6,53.2,29.98,SSW,202,0.0,0.0,49,0.00,,,0.00,WUHU21623XXSP,2013-08-31 01:15:00,
2013-08-30 18:20:00,73.6,53.2,29.98,SSW,202,0.0,0.0,49,0.00,,,0.00,WUHU21623XXSP,2013-08-31 01:20:00,
2013-08-30 18:25:00,73.6,52.6,29.98,NE,45,0.0,0.0,48,0.00,,,0.00,WUHU21623XXSP,2013-08-31 01:25:00,
2013-08-30 18:31:00,73.6,52.6,29.98,NE,45,0.0,0.0,48,0.00,,,0.00,WUHU21623XXSP,2013-08-31 01:31:00,
2013-08-30 18:36:00,73.4,52.4,29.98,NE,45,0.0,0.0,48,0.00,,,0.00,WUHU21623XXSP,2013-08-31 01:36:00,
2013-08-30 18:41:00,73.4,53.0,29.98,NNW,337,0.0,0.0,49,0.00,,,0.00,WUHU21623XXSP,2013-08-31 01:41:00,
2013-08-30 18:47:00,73.6,53.8,29.98,NNW,337,0.0,0.0,50,0.00,,,0.00,WUHU21623XXSP,2013-08-31 01:47:00,
2013-08-30 18:52:00,73.2,53.9,29.98,NNW,337,0.0,0.0,51,0.00,,,0.00,WUHU21623XXSP,2013-08-31 01:52:00,
2013-08-30 18:57:00,73.0,53.8,29.98,NNW,337,0.0,0.0,51,0.00,,,0.00,WUHU21623XXSP,2013-08-31 01:57:00,
2013-08-30 19:02:00,72.7,54.0,29.98,NNW,337,0.0,0.0,52,0.00,,,0.00,WUHU21623XXSP,2013-08-31 02:02:00,
2013-08-30 19:08:00,72.5,54.3,29.98,NNW,337,0.0,0.0,53,0.00,,,0.00,WUHU21623XXSP,2013-08-31 02:08:00,
2013-08-30 19:13:00,72.1,54.5,29.98,NNW,337,0.0,0.0,54,0.00,,,0.00,WUHU21623XXSP,2013-08-31 02:13:00,
2013-08-30 19:18:00,72.0,54.8,29.98,NNW,337,0.0,0.0,55,0.00,,,0.00,WUHU21623XXSP,2013-08-31 02:18:00,
2013-08-30 19:24:00,71.8,54.7,29.98,NNW,337,0.0,0.0,55,0.00,,,0.00,WUHU21623XXSP,2013-08-31 02:24:00,
2013-08-30 19:29:00,71.4,54.8,29.97,NNW,337,0.0,0.0,56,0.00,,,0.00,WUHU21623XXSP,2013-08-31 02:29:00,
2013-08-30 19:34:00,71.2,55.2,29.98,NNW,337,0.0,0.0,57,0.00,,,0.00,WUHU21623XXSP,2013-08-31 02:34:00,
2013-08-30 19:39:00,70.9,55.4,29.98,NNW,337,0.0,0.0,58,0.00,,,0.00,WUHU21623XXSP,2013-08-31 02:39:00,
2013-08-30 19:45:00,70.5,55.5,29.98,NNW,337,0.0,0.0,59,0.00,,,0.00,WUHU21623XXSP,2013-08-31 02:45:00,
2013-08-30 19:50:00,70.2,55.2,29.98,NNW,337,0.0,0.0,59,0.00,,,0.00,WUHU21623XXSP,2013-08-31 02:50:00,
2013-08-30 19:55:00,69.6,55.2,29.98,NNW,337,0.0,0.0,60,0.00,,,0.00,WUHU21623XXSP,2013-08-31 02:55:00,
2013-08-30 20:01:00,69.4,55.0,29.98,NNW,337,0.0,0.0,60,0.00,,,0.00,WUHU21623XXSP,2013-08-31 03:01:00,
2013-08-30 20:06:00,69.1,55.1,29.99,NNW,337,0.0,0.0,61,0.00,,,0.00,WUHU21623XXSP,2013-08-31 03:06:00,
2013-08-30 20:11:00,68.7,55.2,29.99,NNW,337,0.0,0.0,62,0.00,,,0.00,WUHU21623XXSP,2013-08-31 03:11:00,
2013-08-30 20:16:00,68.5,55.0,29.99,NNW,337,0.0,0.0,62,0.00,,,0.00,WUHU21623XXSP,2013-08-31 03:16:00,
2013-08-30 20:22:00,68.2,55.1,29.98,NNW,337,0.0,0.0,63,0.00,,,0.00,WUHU21623XXSP,2013-08-31 03:22:00,
2013-08-30 20:27:00,68.2,55.1,29.98,NNW,337,0.0,0.0,63,0.00,,,0.00,WUHU21623XXSP,2013-08-31 03:27:00,
2013-08-30 20:32:00,67.8,55.1,29.99,NNW,337,0.0,0.0,64,0.00,,,0.00,WUHU21623XXSP,2013-08-31 03:32:00,
2013-08-30 20:38:00,67.8,55.1,29.98,NNW,337,0.0,0.0,64,0.00,,,0.00,WUHU21623XXSP,2013-08-31 03:38:00,
2013-08-30 20:43:00,67.6,55.0,29.99,NW,315,0.0,0.0,64,0.00,,,0.00,WUHU21623XXSP,2013-08-31 03:43:00,
2013-08-30 20:48:00,67.5,55.2,29.99,WNW,292,0.0,0.0,65,0.00,,,0.00,WUHU21623XXSP,2013-08-31 03:48:00,
2013-08-30 20:53:00,67.3,55.1,29.99,NW,315,0.0,0.0,65,0.00,,,0.00,WUHU21623XXSP,2013-08-31 03:53:00,
2013-08-30 20:59:00,67.1,55.3,29.99,NNW,337,0.0,0.0,66,0.00,,,0.00,WUHU21623XXSP,2013-08-31 03:59:00,
2013-08-30 21:04:00,66.9,55.1,29.99,NW,315,0.0,0.0,66,0.00,,,0.00,WUHU21623XXSP,2013-08-31 04:04:00,
2013-08-30 21:09:00,66.7,55.0,29.99,NNW,337,0.0,0.0,66,0.00,,,0.00,WUHU21623XXSP,2013-08-31 04:09:00,
2013-08-30 21:14:00,66.6,55.2,29.99,NW,315,0.0,0.0,67,0.00,,,0.00,WUHU21623XXSP,2013-08-31 04:14:00,
2013-08-30 21:20:00,66.4,55.0,29.99,NW,315,0.0,0.0,67,0.00,,,0.00,WUHU21623XXSP,2013-08-31 04:20:00,
2013-08-30 21:25:00,66.0,54.7,29.99,NNW,337,0.0,0.0,67,0.00,,,0.00,WUHU21623XXSP,2013-08-31 04:25:00,
2013-08-30 21:30:00,66.0,54.7,29.98,NW,315,0.0,0.0,67,0.00,,,0.00,WUHU21623XXSP,2013-08-31 04:30:00,
2013-08-30 21:36:00,65.8,55.0,29.98,NW,315,0.0,0.0,68,0.00,,,0.00,WUHU21623XXSP,2013-08-31 04:36:00,
2013-08-30 21:41:00,65.5,54.6,29.98,NW,315,0.0,0.0,68,0.00,,,0.00,WUHU21623XXSP,2013-08-31 04:41:00,
2013-08-30 21:46:00,65.5,54.6,29.98,NW,315,0.0,0.0,68,0.00,,,0.00,WUHU21623XXSP,2013-08-31 04:46:00,
2013-08-30 21:51:00,65.1,54.7,29.98,NW,315,0.0,0.0,69,0.00,,,0.00,WUHU21623XXSP,2013-08-31 04:51:00,
2013-08-30 21:57:00,65.1,54.7,29.97,NW,315,0.0,0.0,69,0.00,,,0.00,WUHU21623XXSP,2013-08-31 04:57:00,
2013-08-30 22:02:00,64.8,54.8,29.97,NW,315,0.0,0.0,70,0.00,,,0.00,WUHU21623XXSP,2013-08-31 05:02:00,
2013-08-30 22:07:00,64.6,54.7,29.97,NW,315,0.0,0.0,70,0.00,,,0.00,WUHU21623XXSP,2013-08-31 05:07:00,
2013-08-30 22:12:00,64.6,54.7,29.97,NW,315,0.0,0.0,70,0.00,,,0.00,WUHU21623XXSP,2013-08-31 05:12:00,
2013-08-30 22:18:00,64.2,54.3,29.96,NW,315,0.0,0.0,70,0.00,,,0.00,WUHU21623XXSP,2013-08-31 05:18:00,
2013-08-30 22:23:00,64.2,54.7,29.96,NW,315,0.0,0.0,71,0.00,,,0.00,WUHU21623XXSP,2013-08-31 05:23:00,
2013-08-30 22:28:00,64.0,54.5,29.97,NW,315,0.0,0.0,71,0.00,,,0.00,WUHU21623XXSP,2013-08-31 05:28:00,
2013-08-30 22:34:00,64.0,54.5,29.97,NW,315,0.0,0.0,71,0.00,,,0.00,WUHU21623XXSP,2013-08-31 05:34:00,
2013-08-30 22:39:00,63.7,54.1,29.96,NW,315,0.0,0.0,71,0.00,,,0.00,WUHU21623XXSP,2013-08-31 05:39:00,
2013-08-30 22:44:00,63.7,54.1,29.96,NW,315,0.0,0.0,71,0.00,,,0.00,WUHU21623XXSP,2013-08-31 05:44:00,
2013-08-30 22:49:00,63.7,54.1,29.97,NW,315,0.0,0.0,71,0.00,,,0.00,WUHU21623XXSP,2013-08-31 05:49:00,
2013-08-30 22:55:00,63.5,54.0,29.97,NW,315,0.0,0.0,71,0.00,,,0.00,WUHU21623XXSP,2013-08-31 05:55:00,
2013-08-30 23:00:00,63.3,54.1,29.97,NW,315,0.0,0.0,72,0.00,,,0.00,WUHU21623XXSP,2013-08-31 06:00:00,
2013-08-30 23:05:00,63.3,54.1,29.96,NW,315,0.0,0.0,72,0.00,,,0.00,WUHU21623XXSP,2013-08-31 06:05:00,
2013-08-30 23:11:00,63.1,54.0,29.96,NW,315,0.0,0.0,72,0.00,,,0.00,WUHU21623XXSP,2013-08-31 06:11:00,
2013-08-30 23:16:00,63.1,54.0,29.96,NW,315,0.0,0.0,72,0.00,,,0.00,WUHU21623XXSP,2013-08-31 06:16:00,
2013-08-30 23:21:00,63.0,53.8,29.96,NW,315,0.0,0.0,72,0.00,,,0.00,WUHU21623XXSP,2013-08-31 06:21:00,
2013-08-30 23:27:00,62.8,53.6,29.96,NW,315,0.0,0.0,72,0.00,,,0.00,WUHU21623XXSP,2013-08-31 06:27:00,
2013-08-30 23:32:00,62.6,53.4,29.96,NW,315,0.0,0.0,72,0.00,,,0.00,WUHU21623XXSP,2013-08-31 06:32:00,
2013-08-30 23:37:00,62.4,53.6,29.96,NW,315,0.0,0.0,73,0.00,,,0.00,WUHU21623XXSP,2013-08-31 06:37:00,
2013-08-30 23:42:00,62.2,53.5,29.96,NW,315,0.0,0.0,73,0.00,,,0.00,WUHU21623XXSP,2013-08-31 06:42:00,
2013-08-30 23:48:00,62.1,53.3,29.96,NW,315,0.0,0.0,73,0.00,,,0.00,WUHU21623XXSP,2013-08-31 06:48:00,
2013-08-30 23:53:00,61.9,53.5,29.96,NW,315,0.0,0.0,74,0.00,,,0.00,WUHU21623XXSP,2013-08-31 06:53:00,
2013-08-30 23:58:00,61.7,53.3,29.96,NW,315,0.0,0.0,74,0.00,,,0.00,WUHU21623XXSP,2013-08-31 06:58:00,